createdAt,value
2018-05-04T00:00:54.062Z,7.30
2018-05-04T00:03:21.559Z,7.30
2018-05-04T00:05:49.811Z,7.20
2018-05-04T00:08:17.320Z,7.20
2018-05-04T00:10:44.812Z,7.20
2018-05-04T00:13:12.313Z,7.20
2018-05-04T00:15:40.614Z,7.10
2018-05-04T00:18:08.910Z,7.10
2018-05-04T00:20:36.410Z,7.00
2018-05-04T00:23:03.923Z,7.00
2018-05-04T00:25:31.421Z,7.00
2018-05-04T00:27:59.812Z,6.90
2018-05-04T00:30:28.090Z,6.90
2018-05-04T00:32:57.163Z,6.80
2018-05-04T00:35:24.694Z,6.80
2018-05-04T00:37:52.220Z,6.80
2018-05-04T00:40:19.752Z,6.80
2018-05-04T00:42:47.256Z,6.70
2018-05-04T00:45:14.822Z,6.70
2018-05-04T00:47:42.311Z,6.70
2018-05-04T00:50:09.835Z,6.70
2018-05-04T00:52:37.344Z,6.70
2018-05-04T00:55:04.862Z,6.70
2018-05-04T00:57:32.373Z,6.60
2018-05-04T01:00:01.106Z,6.60
2018-05-04T01:02:28.607Z,6.60
2018-05-04T01:04:56.889Z,6.60
2018-05-04T01:07:25.223Z,6.50
2018-05-04T01:09:52.746Z,6.50
2018-05-04T01:12:20.256Z,6.40
2018-05-04T01:14:47.796Z,6.40
2018-05-04T01:17:15.329Z,6.40
2018-05-04T01:19:43.542Z,6.30
2018-05-04T01:22:11.071Z,6.30
2018-05-04T01:24:38.572Z,6.20
2018-05-04T01:27:06.081Z,6.20
2018-05-04T01:29:33.601Z,6.20
2018-05-04T01:32:01.104Z,6.10
2018-05-04T01:34:28.627Z,6.10
2018-05-04T01:36:56.887Z,6.00
2018-05-04T01:39:24.423Z,6.00
2018-05-04T01:41:51.921Z,6.00
2018-05-04T01:44:20.214Z,6.00
2018-05-04T01:46:47.706Z,5.90
2018-05-04T01:49:15.217Z,5.90
2018-05-04T01:51:43.516Z,5.80
2018-05-04T01:54:11.167Z,5.80
2018-05-04T01:56:38.684Z,5.80
2018-05-04T01:59:06.299Z,5.80
2018-05-04T02:01:33.910Z,5.80
2018-05-04T02:04:01.495Z,5.80
2018-05-04T02:06:29.787Z,5.70
2018-05-04T02:08:57.294Z,5.70
2018-05-04T02:11:24.812Z,5.70
2018-05-04T02:13:52.369Z,5.70
2018-05-04T02:16:20.523Z,5.60
2018-05-04T02:18:48.049Z,5.60
2018-05-04T02:21:15.583Z,5.60
2018-05-04T02:23:43.113Z,5.60
2018-05-04T02:26:10.625Z,5.50
2018-05-04T02:28:38.133Z,5.50
2018-05-04T02:31:05.663Z,5.40
2018-05-04T02:33:33.947Z,5.30
2018-05-04T02:36:02.230Z,5.40
2018-05-04T02:38:29.752Z,5.30
2018-05-04T02:40:57.275Z,5.40
2018-05-04T02:43:24.803Z,5.40
2018-05-04T02:45:52.328Z,5.30
2018-05-04T02:48:20.315Z,5.30
2018-05-04T02:50:48.609Z,5.20
2018-05-04T02:53:16.122Z,5.20
2018-05-04T02:55:43.661Z,5.20
2018-05-04T02:58:11.180Z,5.20
2018-05-04T03:00:39.157Z,5.10
2018-05-04T03:03:06.691Z,5.10
2018-05-04T03:05:34.977Z,5.10
2018-05-04T03:08:03.324Z,5.10
2018-05-04T03:10:30.880Z,5.10
2018-05-04T03:12:58.521Z,5.10
2018-05-04T03:15:26.031Z,5.10
2018-05-04T03:17:54.320Z,5.00
2018-05-04T03:20:21.843Z,5.00
2018-05-04T03:22:49.926Z,5.00
2018-05-04T03:25:17.456Z,4.90
2018-05-04T03:27:44.987Z,4.90
2018-05-04T03:30:12.553Z,4.90
2018-05-04T03:32:40.153Z,4.80
2018-05-04T03:35:08.529Z,4.80
2018-05-04T03:37:36.029Z,4.80
2018-05-04T03:40:03.557Z,4.70
2018-05-04T03:42:31.861Z,4.70
2018-05-04T03:44:59.363Z,4.70
2018-05-04T03:47:26.876Z,4.70
2018-05-04T03:49:54.414Z,4.70
2018-05-04T03:52:22.715Z,4.60
2018-05-04T03:54:50.224Z,4.60
2018-05-04T03:57:29.668Z,4.60
2018-05-04T04:00:08.976Z,4.60
2018-05-04T04:02:48.479Z,4.60
2018-05-04T04:05:16.018Z,4.60
2018-05-04T04:07:44.306Z,4.60
2018-05-04T04:10:12.608Z,4.60
2018-05-04T04:12:40.298Z,4.60
2018-05-04T04:15:08.512Z,4.60
2018-05-04T04:17:36.788Z,4.70
2018-05-04T04:20:05.068Z,4.70
2018-05-04T04:22:33.371Z,4.80
2018-05-04T04:25:00.869Z,4.80
2018-05-04T04:27:28.390Z,4.90
2018-05-04T04:29:55.911Z,5.10
2018-05-04T04:32:23.470Z,5.40
2018-05-04T04:34:51.755Z,5.90
2018-05-04T04:37:20.161Z,6.30
2018-05-04T04:39:47.659Z,6.20
2018-05-04T04:42:15.197Z,6.50
2018-05-04T04:44:43.457Z,6.80
2018-05-04T04:47:11.066Z,6.70
2018-05-04T04:49:38.594Z,6.90
2018-05-04T04:52:06.111Z,7.00
2018-05-04T04:54:33.623Z,7.10
2018-05-04T04:57:01.139Z,7.20
2018-05-04T04:59:28.686Z,7.30
2018-05-04T05:01:56.294Z,7.50
2018-05-04T05:04:23.701Z,7.60
2018-05-04T05:06:52.055Z,7.90
2018-05-04T05:09:19.569Z,7.90
2018-05-04T05:11:47.093Z,8.00
2018-05-04T05:14:15.365Z,8.30
2018-05-04T05:16:43.637Z,8.40
2018-05-04T05:19:11.930Z,8.60
2018-05-04T05:21:39.462Z,8.60
2018-05-04T05:24:06.976Z,8.80
2018-05-04T05:26:34.505Z,8.90
2018-05-04T05:29:02.016Z,8.90
2018-05-04T05:31:29.549Z,9.00
2018-05-04T05:33:57.073Z,9.00
2018-05-04T05:36:25.349Z,9.30
2018-05-04T05:38:54.610Z,9.50
2018-05-04T05:41:24.361Z,9.50
2018-05-04T05:43:51.899Z,9.60
2018-05-04T05:46:20.204Z,9.90
2018-05-04T05:48:48.695Z,9.80
2018-05-04T05:51:16.328Z,10.00
2018-05-04T05:53:46.948Z,10.20
2018-05-04T05:56:14.558Z,10.10
2018-05-04T05:58:42.095Z,10.20
2018-05-04T06:01:09.639Z,10.20
2018-05-04T06:03:37.930Z,10.10
2018-05-04T06:06:06.370Z,10.10
2018-05-04T06:08:33.889Z,10.00
2018-05-04T06:11:01.399Z,10.00
2018-05-04T06:13:30.458Z,10.00
2018-05-04T06:15:58.929Z,9.80
2018-05-04T06:18:26.515Z,9.70
2018-05-04T06:20:54.469Z,9.70
2018-05-04T06:23:21.981Z,9.60
2018-05-04T06:25:50.229Z,9.70
2018-05-04T06:28:18.312Z,9.70
2018-05-04T06:30:46.541Z,9.90
2018-05-04T06:33:14.037Z,10.00
2018-05-04T06:35:41.552Z,10.10
2018-05-04T06:38:10.755Z,10.20
2018-05-04T06:40:38.271Z,10.40
2018-05-04T06:43:06.541Z,10.70
2018-05-04T06:45:34.825Z,10.80
2018-05-04T06:48:03.091Z,11.00
2018-05-04T06:50:31.361Z,11.10
2018-05-04T06:52:58.921Z,11.10
2018-05-04T06:55:26.474Z,11.20
2018-05-04T06:57:53.987Z,11.30
2018-05-04T07:00:21.486Z,11.50
2018-05-04T07:02:49.012Z,11.50
2018-05-04T07:05:16.501Z,11.60
2018-05-04T07:07:44.007Z,11.80
2018-05-04T07:10:11.527Z,11.90
2018-05-04T07:12:39.734Z,12.00
2018-05-04T07:15:07.294Z,12.10
2018-05-04T07:17:36.487Z,12.20
2018-05-04T07:20:04.101Z,12.20
2018-05-04T07:22:32.314Z,12.40
2018-05-04T07:25:00.590Z,12.60
2018-05-04T07:27:29.486Z,12.70
2018-05-04T07:29:57.844Z,12.80
2018-05-04T07:32:26.718Z,12.90
2018-05-04T07:34:55.082Z,12.90
2018-05-04T07:37:23.176Z,13.00
2018-05-04T07:39:51.157Z,13.00
2018-05-04T07:42:19.550Z,13.20
2018-05-04T07:44:47.904Z,13.30
2018-05-04T07:47:19.729Z,13.40
2018-05-04T07:49:51.188Z,13.40
2018-05-04T07:52:39.749Z,13.50
2018-05-04T07:55:14.091Z,13.50
2018-05-04T08:00:16.578Z,13.80
2018-05-04T08:02:44.190Z,13.80
2018-05-04T08:05:12.012Z,13.90
2018-05-04T08:07:40.336Z,14.00
2018-05-04T08:10:08.767Z,14.00
2018-05-04T08:12:38.341Z,14.00
2018-05-04T08:15:06.328Z,14.10
2018-05-04T08:17:34.706Z,14.40
2018-05-04T08:20:05.155Z,14.40
2018-05-04T08:22:34.805Z,14.60
2018-05-04T08:25:02.541Z,14.70
2018-05-04T08:27:30.794Z,14.70
2018-05-04T08:29:59.816Z,14.70
2018-05-04T08:32:28.171Z,14.70
2018-05-04T08:34:56.645Z,14.70
2018-05-04T08:37:24.914Z,14.80
2018-05-04T08:39:52.872Z,14.80
2018-05-04T08:42:20.392Z,14.90
2018-05-04T08:44:47.959Z,15.00
2018-05-04T08:47:15.473Z,15.10
2018-05-04T08:49:43.720Z,15.40
2018-05-04T08:52:11.234Z,15.40
2018-05-04T08:54:38.718Z,15.60
2018-05-04T08:57:06.339Z,15.80
2018-05-04T08:59:33.885Z,15.90
2018-05-04T09:02:02.997Z,16.10
2018-05-04T09:04:30.508Z,16.10
2018-05-04T09:06:58.007Z,16.20
2018-05-04T09:09:25.503Z,16.30
2018-05-04T09:11:53.003Z,16.40
2018-05-04T09:14:21.281Z,16.40
2018-05-04T09:16:50.039Z,16.50
2018-05-04T09:19:17.620Z,16.50
2018-05-04T09:21:45.195Z,16.50
2018-05-04T09:24:13.465Z,16.70
2018-05-04T09:26:41.889Z,16.60
2018-05-04T09:29:10.218Z,16.50
2018-05-04T09:31:40.102Z,16.40
2018-05-04T09:34:09.419Z,16.60
2018-05-04T09:36:36.983Z,16.70
2018-05-04T09:39:04.503Z,16.80
2018-05-04T09:41:32.132Z,16.70
2018-05-04T09:43:59.646Z,16.70
2018-05-04T09:46:27.271Z,16.80
2018-05-04T09:48:54.918Z,17.00
2018-05-04T09:51:22.372Z,17.00
2018-05-04T09:53:49.856Z,17.00
2018-05-04T09:56:17.378Z,17.20
2018-05-04T09:58:45.663Z,17.60
2018-05-04T10:01:13.153Z,17.50
2018-05-04T10:03:40.745Z,17.60
2018-05-04T10:06:08.194Z,17.50
2018-05-04T10:08:35.687Z,17.60
2018-05-04T10:11:03.251Z,17.60
2018-05-04T10:13:33.121Z,17.40
2018-05-04T10:16:01.761Z,17.40
2018-05-04T10:18:42.829Z,17.50
2018-05-04T10:21:10.536Z,17.50
2018-05-04T10:26:12.798Z,17.60
2018-05-04T10:28:40.299Z,17.80
2018-05-04T10:31:09.804Z,17.90
2018-05-04T10:33:37.369Z,17.80
2018-05-04T10:36:05.584Z,17.90
2018-05-04T10:38:33.230Z,18.10
2018-05-04T10:41:00.661Z,18.20
2018-05-04T10:43:29.064Z,18.30
2018-05-04T10:45:56.578Z,18.30
2018-05-04T10:48:24.177Z,18.10
2018-05-04T10:50:52.893Z,17.90
2018-05-04T10:53:21.133Z,17.80
2018-05-04T10:55:50.130Z,17.80
2018-05-04T10:58:18.405Z,17.90
2018-05-04T11:00:46.695Z,18.00
2018-05-04T11:03:14.270Z,18.00
2018-05-04T11:05:41.854Z,17.90
2018-05-04T11:08:12.610Z,17.90
2018-05-04T11:10:40.429Z,17.80
2018-05-04T11:13:07.986Z,17.90
2018-05-04T11:15:35.691Z,18.10
2018-05-04T11:18:07.320Z,18.20
2018-05-04T11:20:37.589Z,18.20
2018-05-04T11:23:06.002Z,18.20
2018-05-04T11:25:34.540Z,18.30
2018-05-04T11:28:02.735Z,18.40
2018-05-04T11:30:31.646Z,18.30
2018-05-04T11:32:59.419Z,18.30
2018-05-04T11:35:28.155Z,18.30
2018-05-04T11:37:55.917Z,18.20
2018-05-04T11:40:24.057Z,18.20
2018-05-04T11:42:52.043Z,18.20
2018-05-04T11:45:20.853Z,18.20
2018-05-04T11:47:48.363Z,18.20
2018-05-04T11:50:15.906Z,18.30
2018-05-04T11:52:43.443Z,18.30
2018-05-04T11:55:11.861Z,18.40
2018-05-04T11:57:40.162Z,18.40
2018-05-04T12:00:07.708Z,18.40
2018-05-04T12:02:35.287Z,18.40
2018-05-04T12:05:02.833Z,18.50
2018-05-04T12:07:30.332Z,18.40
2018-05-04T12:09:58.637Z,18.50
2018-05-04T12:12:26.976Z,18.40
2018-05-04T12:14:54.547Z,18.50
2018-05-04T12:17:22.827Z,18.60
2018-05-04T12:19:51.116Z,18.80
2018-05-04T12:22:18.620Z,18.80
2018-05-04T12:24:46.262Z,19.00
2018-05-04T12:27:14.622Z,19.00
2018-05-04T12:29:42.139Z,19.00
2018-05-04T12:32:09.677Z,19.10
2018-05-04T12:34:37.210Z,19.10
2018-05-04T12:39:39.363Z,19.20
2018-05-04T12:42:06.879Z,19.20
2018-05-04T12:44:34.405Z,19.30
2018-05-04T12:47:01.946Z,19.40
2018-05-04T12:49:30.252Z,19.60
2018-05-04T12:51:57.798Z,19.50
2018-05-04T12:54:25.948Z,19.60
2018-05-04T12:56:54.240Z,19.60
2018-05-04T12:59:21.811Z,19.40
2018-05-04T13:01:49.332Z,19.40
2018-05-04T13:04:17.617Z,19.30
2018-05-04T13:06:45.161Z,19.30
2018-05-04T13:09:13.469Z,19.30
2018-05-04T13:11:40.974Z,19.30
2018-05-04T13:14:08.542Z,19.30
2018-05-04T13:16:36.259Z,19.50
2018-05-04T13:19:04.354Z,19.50
2018-05-04T13:21:31.909Z,19.60
2018-05-04T13:23:59.436Z,19.70
2018-05-04T13:26:27.010Z,19.80
2018-05-04T13:28:55.112Z,19.90
2018-05-04T13:31:23.362Z,19.90
2018-05-04T13:33:51.520Z,19.90
2018-05-04T13:36:19.050Z,19.90
2018-05-04T13:38:47.408Z,19.90
2018-05-04T13:41:14.917Z,19.90
2018-05-04T13:43:42.539Z,19.80
2018-05-04T13:46:10.841Z,19.90
2018-05-04T13:48:39.082Z,19.90
2018-05-04T13:51:06.618Z,19.90
2018-05-04T13:53:34.153Z,20.00
2018-05-04T13:56:01.677Z,20.00
2018-05-04T13:58:30.023Z,20.00
2018-05-04T14:00:57.537Z,19.90
2018-05-04T14:03:25.054Z,20.00
2018-05-04T14:05:53.496Z,20.00
2018-05-04T14:08:21.641Z,20.10
2018-05-04T14:10:49.160Z,20.10
2018-05-04T14:13:16.691Z,20.10
2018-05-04T14:15:44.196Z,20.00
2018-05-04T14:18:12.481Z,20.00
2018-05-04T14:20:40.063Z,19.90
2018-05-04T14:23:07.600Z,19.90
2018-05-04T14:25:35.143Z,19.80
2018-05-04T14:28:02.747Z,19.80
2018-05-04T14:30:30.816Z,19.80
2018-05-04T14:32:59.117Z,19.70
2018-05-04T14:35:26.648Z,19.70
2018-05-04T14:37:54.216Z,19.80
2018-05-04T14:40:21.728Z,19.80
2018-05-04T14:42:50.052Z,19.80
2018-05-04T14:45:17.631Z,19.80
2018-05-04T14:47:45.153Z,19.90
2018-05-04T14:50:12.657Z,19.90
2018-05-04T14:52:40.206Z,20.00
2018-05-04T14:55:07.760Z,20.00
2018-05-04T14:57:35.328Z,20.20
2018-05-04T15:00:02.808Z,20.30
2018-05-04T15:02:31.052Z,20.20
2018-05-04T15:04:58.575Z,20.20
2018-05-04T15:07:26.083Z,20.20
2018-05-04T15:09:53.597Z,20.10
2018-05-04T15:12:21.113Z,20.10
2018-05-04T15:14:49.232Z,20.10
2018-05-04T15:17:16.882Z,20.10
2018-05-04T15:19:44.407Z,20.00
2018-05-04T15:22:11.955Z,19.90
2018-05-04T15:24:40.212Z,19.80
2018-05-04T15:27:07.741Z,19.70
2018-05-04T15:29:35.273Z,19.70
2018-05-04T15:32:03.574Z,19.80
2018-05-04T15:34:31.970Z,19.70
2018-05-04T15:36:59.518Z,19.70
2018-05-04T15:39:27.137Z,19.70
2018-05-04T15:41:54.701Z,19.70
2018-05-04T15:44:22.249Z,19.60
2018-05-04T15:46:49.761Z,19.70
2018-05-04T15:49:19.072Z,19.80
2018-05-04T15:51:52.180Z,19.80
2018-05-04T15:54:20.301Z,19.80
2018-05-04T15:56:47.817Z,19.80
2018-05-04T15:59:16.045Z,19.70
2018-05-04T16:01:43.562Z,19.70
2018-05-04T16:04:11.090Z,19.80
2018-05-04T16:06:39.226Z,19.90
2018-05-04T16:09:07.492Z,19.80
2018-05-04T16:11:35.862Z,19.70
2018-05-04T16:14:03.310Z,19.70
2018-05-04T16:16:30.829Z,19.70
2018-05-04T16:18:58.325Z,19.70
2018-05-04T16:21:25.831Z,19.70
2018-05-04T16:23:53.471Z,19.70
2018-05-04T16:26:21.017Z,19.80
2018-05-04T16:28:49.373Z,19.70
2018-05-04T16:31:16.830Z,19.60
2018-05-04T16:33:44.362Z,19.70
2018-05-04T16:36:11.885Z,19.70
2018-05-04T16:38:39.464Z,19.70
2018-05-04T16:41:06.934Z,19.70
2018-05-04T16:43:34.477Z,19.70
2018-05-04T16:46:02.055Z,19.70
2018-05-04T16:48:35.284Z,19.80
2018-05-04T16:51:02.804Z,19.70
2018-05-04T16:53:30.320Z,19.60
2018-05-04T16:55:58.671Z,19.70
2018-05-04T16:58:26.981Z,19.60
2018-05-04T17:00:54.510Z,19.70
2018-05-04T17:03:21.995Z,19.70
2018-05-04T17:05:49.561Z,19.70
2018-05-04T17:08:17.084Z,19.70
2018-05-04T17:10:45.355Z,19.80
2018-05-04T17:13:12.898Z,19.80
2018-05-04T17:15:40.445Z,19.80
2018-05-04T17:18:08.024Z,19.90
2018-05-04T17:20:35.550Z,20.20
2018-05-04T17:23:03.107Z,20.60
2018-05-04T17:25:31.407Z,21.90
2018-05-04T17:27:58.970Z,21.80
2018-05-04T17:30:26.541Z,22.60
2018-05-04T17:32:54.084Z,23.30
2018-05-04T17:35:21.602Z,23.80
2018-05-04T17:37:49.152Z,24.00
2018-05-04T17:40:17.614Z,24.40
2018-05-04T17:42:45.780Z,24.50
2018-05-04T17:45:13.280Z,24.50
2018-05-04T17:47:40.819Z,24.60
2018-05-04T17:50:09.120Z,24.50
2018-05-04T17:52:37.414Z,24.50
2018-05-04T17:55:04.985Z,24.40
2018-05-04T17:57:32.592Z,24.50
2018-05-04T18:00:00.065Z,24.50
2018-05-04T18:02:27.652Z,24.30
2018-05-04T18:04:55.177Z,24.00
2018-05-04T18:07:22.770Z,23.10
2018-05-04T18:09:50.340Z,21.80
2018-05-04T18:14:51.707Z,19.70
2018-05-04T18:17:19.275Z,19.10
2018-05-04T18:19:46.772Z,18.60
2018-05-04T18:22:15.055Z,17.80
2018-05-04T18:24:43.383Z,17.80
2018-05-04T18:27:10.909Z,17.60
2018-05-04T18:29:38.438Z,17.40
2018-05-04T18:32:06.720Z,16.90
2018-05-04T18:34:34.269Z,16.90
2018-05-04T18:37:03.074Z,16.60
2018-05-04T18:39:30.600Z,16.60
2018-05-04T18:41:58.154Z,16.50
2018-05-04T18:44:25.725Z,16.30
2018-05-04T18:46:53.258Z,16.20
2018-05-04T18:49:20.787Z,16.10
2018-05-04T18:51:48.333Z,15.90
2018-05-04T18:54:15.860Z,15.80
2018-05-04T18:56:44.763Z,15.60
2018-05-04T18:59:13.050Z,15.40
2018-05-04T19:01:40.650Z,15.40
2018-05-04T19:04:08.178Z,15.30
2018-05-04T19:06:35.717Z,15.10
2018-05-04T19:09:04.576Z,14.90
2018-05-04T19:11:32.106Z,14.90
2018-05-04T19:13:59.613Z,14.90
2018-05-04T19:16:27.894Z,14.80
2018-05-04T19:18:57.169Z,14.60
2018-05-04T19:21:24.697Z,14.50
2018-05-04T19:23:52.239Z,14.50
2018-05-04T19:26:19.762Z,14.40
2018-05-04T19:28:48.047Z,14.30
2018-05-04T19:31:16.300Z,14.10
2018-05-04T19:33:43.859Z,14.10
2018-05-04T19:36:12.330Z,14.00
2018-05-04T19:38:39.896Z,14.00
2018-05-04T19:41:08.179Z,13.90
2018-05-04T19:43:35.727Z,13.80
2018-05-04T19:46:03.248Z,13.70
2018-05-04T19:48:30.776Z,13.60
2018-05-04T19:50:59.107Z,13.40
2018-05-04T19:53:26.674Z,13.40
2018-05-04T19:55:54.186Z,13.40
2018-05-04T19:58:21.723Z,13.30
2018-05-04T20:00:50.004Z,13.10
2018-05-04T20:03:18.345Z,13.10
2018-05-04T20:05:46.583Z,13.10
2018-05-04T20:08:14.104Z,13.00
2018-05-04T20:10:41.652Z,13.00
2018-05-04T20:13:09.185Z,12.90
2018-05-04T20:15:36.728Z,12.80
2018-05-04T20:18:04.273Z,12.80
2018-05-04T20:20:31.774Z,12.80
2018-05-04T20:22:59.323Z,12.70
2018-05-04T20:25:26.935Z,12.60
2018-05-04T20:27:54.490Z,12.60
2018-05-04T20:30:23.639Z,12.40
2018-05-04T20:32:51.210Z,12.40
2018-05-04T20:35:19.526Z,12.40
2018-05-04T20:37:47.833Z,12.30
2018-05-04T20:40:15.475Z,12.30
2018-05-04T20:42:43.733Z,12.20
2018-05-04T20:45:12.032Z,12.10
2018-05-04T20:47:40.082Z,12.20
2018-05-04T20:50:07.625Z,12.10
2018-05-04T20:52:35.174Z,12.10
2018-05-04T20:55:02.818Z,12.10
2018-05-04T20:57:30.835Z,12.10
2018-05-04T20:59:59.166Z,12.00
2018-05-04T21:02:26.676Z,12.00
2018-05-04T21:04:54.231Z,11.90
2018-05-04T21:07:22.636Z,11.80
2018-05-04T21:09:50.195Z,11.80
2018-05-04T21:12:18.672Z,11.80
2018-05-04T21:14:46.221Z,11.80
2018-05-04T21:17:14.375Z,11.80
2018-05-04T21:19:43.148Z,11.70
2018-05-04T21:22:10.687Z,11.70
2018-05-04T21:24:38.265Z,11.70
2018-05-04T21:27:05.842Z,11.70
2018-05-04T21:29:33.365Z,11.70
2018-05-04T21:32:00.954Z,11.70
2018-05-04T21:34:29.268Z,11.70
2018-05-04T21:36:56.779Z,11.60
2018-05-04T21:39:24.281Z,11.60
2018-05-04T21:41:51.831Z,11.60
2018-05-04T21:44:19.357Z,11.50
2018-05-04T21:46:47.769Z,11.40
2018-05-04T21:49:15.377Z,11.30
2018-05-04T21:51:42.951Z,11.30
2018-05-04T21:54:10.465Z,11.30
2018-05-04T21:56:38.001Z,11.30
2018-05-04T21:59:05.612Z,11.30
2018-05-04T22:01:34.337Z,11.30
2018-05-04T22:04:03.529Z,11.30
2018-05-04T22:06:31.869Z,11.30
2018-05-04T22:08:59.424Z,11.20
2018-05-04T22:11:26.971Z,11.20
2018-05-04T22:13:54.521Z,11.20
2018-05-04T22:16:22.055Z,11.10
2018-05-04T22:18:50.362Z,11.00
2018-05-04T22:21:17.923Z,11.00
2018-05-04T22:23:46.083Z,11.00
2018-05-04T22:26:13.692Z,11.00
2018-05-04T22:28:41.217Z,11.00
2018-05-04T22:31:08.757Z,11.00
2018-05-04T22:33:36.283Z,11.00
2018-05-04T22:36:04.588Z,10.90
2018-05-04T22:38:32.119Z,10.80
2018-05-04T22:41:00.437Z,10.80
2018-05-04T22:43:28.855Z,10.70
2018-05-04T22:45:56.524Z,10.70
2018-05-04T22:48:24.119Z,10.60
2018-05-04T22:50:53.037Z,10.40
2018-05-04T22:53:20.569Z,10.40
2018-05-04T22:55:48.101Z,10.30
2018-05-04T22:58:16.374Z,10.10
2018-05-04T23:00:43.904Z,10.10
2018-05-04T23:03:11.451Z,10.00
2018-05-04T23:05:38.997Z,10.00
2018-05-04T23:08:06.528Z,9.90
2018-05-04T23:10:34.049Z,9.80
2018-05-04T23:13:02.323Z,9.70
2018-05-04T23:15:29.854Z,9.70
2018-05-04T23:17:58.000Z,9.70
2018-05-04T23:20:25.548Z,9.60
2018-05-04T23:22:53.848Z,9.50
2018-05-04T23:25:21.361Z,9.50
2018-05-04T23:27:48.893Z,9.50
2018-05-04T23:30:16.421Z,9.50
2018-05-04T23:32:43.952Z,9.50
2018-05-04T23:35:12.277Z,9.30
2018-05-04T23:37:39.819Z,9.30
2018-05-04T23:40:07.352Z,9.20
2018-05-04T23:42:35.649Z,9.30
2018-05-04T23:45:03.233Z,9.30
2018-05-04T23:47:30.758Z,9.30
2018-05-04T23:49:58.322Z,9.30
2018-05-04T23:52:25.859Z,9.20
2018-05-04T23:54:54.848Z,9.20
2018-05-04T23:57:22.421Z,9.10
2018-05-04T23:59:50.698Z,9.20
